Time,TemperatureF,DewpointF,PressureIn,WindDirection,WindDirectionDegrees,WindSpeedMPH,WindSpeedGustMPH,Humidity,HourlyPrecipIn,Conditions,Clouds,dailyrainin,SoftwareType,DateUTC
2013-06-12 00:12:00,71.6,-33.9,29.83,West,270,0.0,-999.0,1,-99.99,,,0.00,Acu-Link.com,2013-06-12 04:12:00,
2013-06-12 00:27:00,71.6,-33.9,29.84,West,270,0.0,-999.0,1,-99.99,,,0.00,Acu-Link.com,2013-06-12 04:27:00,
2013-06-12 00:43:00,71.4,-34.0,29.84,SSW,202,0.0,-999.0,1,-99.99,,,0.00,Acu-Link.com,2013-06-12 04:43:00,
2013-06-12 00:58:00,71.2,-34.1,29.83,West,270,0.0,-999.0,1,-99.99,,,0.00,Acu-Link.com,2013-06-12 04:58:00,
2013-06-12 01:13:00,70.7,-34.4,29.83,WSW,247,0.0,-999.0,1,-99.99,,,0.00,Acu-Link.com,2013-06-12 05:13:00,
2013-06-12 01:29:00,70.2,-34.7,29.83,South,180,0.0,-999.0,1,-99.99,,,0.00,Acu-Link.com,2013-06-12 05:29:00,
2013-06-12 01:44:00,69.8,-34.9,29.83,WNW,292,0.0,-999.0,1,-99.99,,,0.00,Acu-Link.com,2013-06-12 05:44:00,
2013-06-12 01:59:00,69.6,-35.1,29.82,West,270,0.0,-999.0,1,-99.99,,,0.00,Acu-Link.com,2013-06-12 05:59:00,
2013-06-12 02:15:00,69.3,-35.2,29.82,WSW,247,0.0,-999.0,1,-99.99,,,0.00,Acu-Link.com,2013-06-12 06:15:00,
2013-06-12 02:30:00,68.9,-35.5,29.82,SW,225,0.0,-999.0,1,-99.99,,,0.00,Acu-Link.com,2013-06-12 06:30:00,
2013-06-12 02:45:00,68.5,-35.7,29.81,North,0,0.0,-999.0,1,-99.99,,,0.00,Acu-Link.com,2013-06-12 06:45:00,
2013-06-12 03:00:00,68.4,-35.8,29.81,SE,135,0.0,-999.0,1,-99.99,,,0.00,Acu-Link.com,2013-06-12 07:00:00,
2013-06-12 03:16:00,68.2,-35.9,29.80,SW,225,0.0,-999.0,1,-99.99,,,0.00,Acu-Link.com,2013-06-12 07:16:00,
2013-06-12 03:31:00,67.8,-36.1,29.81,West,270,0.0,-999.0,1,-99.99,,,0.00,Acu-Link.com,2013-06-12 07:31:00,
2013-06-12 03:47:00,67.6,-36.3,29.80,ESE,112,0.0,-999.0,1,-99.99,,,0.00,Acu-Link.com,2013-06-12 07:47:00,
2013-06-12 04:02:00,67.3,-36.4,29.80,WNW,292,0.0,-999.0,1,-99.99,,,0.00,Acu-Link.com,2013-06-12 08:02:00,
2013-06-12 04:18:00,67.1,-36.6,29.81,West,270,0.0,-999.0,1,-99.99,,,0.00,Acu-Link.com,2013-06-12 08:18:00,
2013-06-12 04:33:00,66.7,-36.8,29.81,SSW,202,0.0,-999.0,1,-99.99,,,0.00,Acu-Link.com,2013-06-12 08:33:00,
2013-06-12 04:48:00,66.4,-37.0,29.82,SSW,202,0.0,-999.0,1,-99.99,,,0.00,Acu-Link.com,2013-06-12 08:48:00,
2013-06-12 05:03:00,66.0,-37.2,29.82,SSW,202,0.0,-999.0,1,-99.99,,,0.00,Acu-Link.com,2013-06-12 09:03:00,
2013-06-12 05:18:00,65.8,-37.3,29.82,SSW,202,0.0,-999.0,1,-99.99,,,0.00,Acu-Link.com,2013-06-12 09:18:00,
2013-06-12 05:34:00,65.7,-37.4,29.83,SSW,202,0.0,-999.0,1,-99.99,,,0.00,Acu-Link.com,2013-06-12 09:34:00,
2013-06-12 05:49:00,65.7,-37.4,29.83,SSW,202,0.0,-999.0,1,-99.99,,,0.00,Acu-Link.com,2013-06-12 09:49:00,
2013-06-12 06:05:00,65.5,-37.5,29.84,SSW,202,0.0,-999.0,1,-99.99,,,0.00,Acu-Link.com,2013-06-12 10:05:00,
2013-06-12 06:20:00,65.5,-37.5,29.85,SSW,202,0.0,-999.0,1,-99.99,,,0.00,Acu-Link.com,2013-06-12 10:20:00,
2013-06-12 06:35:00,65.5,-37.5,29.84,SSW,202,0.0,-999.0,1,-99.99,,,0.00,Acu-Link.com,2013-06-12 10:35:00,
2013-06-12 06:51:00,65.7,-37.4,29.85,SSW,202,0.0,-999.0,1,-99.99,,,0.00,Acu-Link.com,2013-06-12 10:51:00,
2013-06-12 07:06:00,66.0,-37.2,29.86,SSW,202,0.0,-999.0,1,-99.99,,,0.00,Acu-Link.com,2013-06-12 11:06:00,
2013-06-12 07:21:00,66.2,-37.1,29.86,SE,135,0.0,-999.0,1,-99.99,,,0.00,Acu-Link.com,2013-06-12 11:21:00,
2013-06-12 07:37:00,66.6,-36.9,29.86,West,270,0.0,-999.0,1,-99.99,,,0.00,Acu-Link.com,2013-06-12 11:37:00,
2013-06-12 07:52:00,67.6,-36.3,29.86,SSW,202,1.7,-999.0,1,-99.99,,,0.00,Acu-Link.com,2013-06-12 11:52:00,
2013-06-12 08:08:00,69.6,-35.1,29.85,SSE,157,1.7,-999.0,1,-99.99,,,0.00,Acu-Link.com,2013-06-12 12:08:00,
2013-06-12 08:23:00,70.3,-34.6,29.85,SW,225,2.2,-999.0,1,-99.99,,,0.00,Acu-Link.com,2013-06-12 12:23:00,
2013-06-12 08:38:00,71.4,-34.0,29.85,South,180,1.7,-999.0,1,-99.99,,,0.00,Acu-Link.com,2013-06-12 12:38:00,
2013-06-12 08:54:00,72.9,-33.1,29.85,West,270,1.7,-999.0,1,-99.99,,,0.00,Acu-Link.com,2013-06-12 12:54:00,
2013-06-12 09:09:00,74.5,-32.1,29.86,SE,135,1.7,-999.0,1,-99.99,,,0.00,Acu-Link.com,2013-06-12 13:09:00,
2013-06-12 09:24:00,75.9,-31.3,29.85,SE,135,2.2,-999.0,1,-99.99,,,0.00,Acu-Link.com,2013-06-12 13:24:00,
2013-06-12 09:39:00,77.0,27.4,29.85,WSW,247,2.7,-999.0,16,-99.99,,,0.00,Acu-Link.com,2013-06-12 13:39:00,
2013-06-12 09:55:00,78.3,45.2,29.85,SSW,202,3.2,-999.0,31,-99.99,,,0.00,Acu-Link.com,2013-06-12 13:55:00,
2013-06-12 10:10:00,79.2,48.4,29.85,WSW,247,2.2,-999.0,34,-99.99,,,0.00,Acu-Link.com,2013-06-12 14:10:00,
2013-06-12 10:25:00,80.1,53.6,29.84,SE,135,1.7,-999.0,40,-99.99,,,0.00,Acu-Link.com,2013-06-12 14:25:00,
2013-06-12 10:40:00,81.0,54.4,29.84,West,270,1.1,-999.0,40,-99.99,,,0.00,Acu-Link.com,2013-06-12 14:40:00,
2013-06-12 10:56:00,82.2,54.0,29.84,South,180,3.2,-999.0,38,-99.99,,,0.00,Acu-Link.com,2013-06-12 14:56:00,
2013-06-12 11:11:00,83.8,62.0,29.84,West,270,1.7,-999.0,48,-99.99,,,0.00,Acu-Link.com,2013-06-12 15:11:00,
2013-06-12 11:26:00,84.0,67.6,29.85,SW,225,1.7,-999.0,58,-99.99,,,0.00,Acu-Link.com,2013-06-12 15:26:00,
2013-06-12 11:41:00,84.7,71.6,29.84,West,270,3.2,-999.0,65,-99.99,,,0.00,Acu-Link.com,2013-06-12 15:41:00,
2013-06-12 11:57:00,84.4,73.5,29.83,WNW,292,3.7,-999.0,70,-99.99,,,0.00,Acu-Link.com,2013-06-12 15:57:00,
2013-06-12 12:12:00,83.5,73.9,29.83,WSW,247,1.7,-999.0,73,-99.99,,,0.00,Acu-Link.com,2013-06-12 16:12:00,
2013-06-12 12:27:00,84.9,74.8,29.83,South,180,4.2,-999.0,72,-99.99,,,0.00,Acu-Link.com,2013-06-12 16:27:00,
2013-06-12 12:43:00,85.3,75.6,29.83,WNW,292,1.7,-999.0,73,-99.99,,,0.00,Acu-Link.com,2013-06-12 16:43:00,
2013-06-12 12:58:00,84.6,75.8,29.82,North,0,2.2,-999.0,75,-99.99,,,0.00,Acu-Link.com,2013-06-12 16:58:00,
2013-06-12 13:13:00,86.4,76.3,29.83,West,270,2.2,-999.0,72,-99.99,,,0.00,Acu-Link.com,2013-06-12 17:13:00,
2013-06-12 13:29:00,86.9,76.8,29.83,South,180,2.2,-999.0,72,-99.99,,,0.00,Acu-Link.com,2013-06-12 17:29:00,
2013-06-12 13:44:00,88.0,77.8,29.83,WSW,247,2.7,-999.0,72,-99.99,,,0.00,Acu-Link.com,2013-06-12 17:44:00,
2013-06-12 13:59:00,88.5,77.4,29.82,NW,315,2.7,-999.0,70,-99.99,,,0.00,Acu-Link.com,2013-06-12 17:59:00,
2013-06-12 14:15:00,89.8,79.1,29.81,North,0,2.2,-999.0,71,-99.99,,,0.00,Acu-Link.com,2013-06-12 18:15:00,
2013-06-12 14:30:00,90.3,77.8,29.81,SE,135,1.1,-999.0,67,-99.99,,,0.00,Acu-Link.com,2013-06-12 18:30:00,
2013-06-12 14:45:00,90.3,78.3,29.80,West,270,2.7,-999.0,68,-99.99,,,0.00,Acu-Link.com,2013-06-12 18:45:00,
2013-06-12 15:00:00,89.1,78.9,29.81,SW,225,2.7,-999.0,72,-99.99,,,0.00,Acu-Link.com,2013-06-12 19:00:00,
2013-06-12 15:15:00,90.3,78.7,29.80,ESE,112,3.7,-999.0,69,-99.99,,,0.00,Acu-Link.com,2013-06-12 19:15:00,
2013-06-12 15:30:00,90.0,78.4,29.80,South,180,3.7,-999.0,69,-99.99,,,0.00,Acu-Link.com,2013-06-12 19:30:00,
2013-06-12 15:45:00,89.8,77.8,29.80,West,270,2.2,-999.0,68,-99.99,,,0.00,Acu-Link.com,2013-06-12 19:45:00,
2013-06-12 16:01:00,89.8,78.2,29.80,NNE,22,3.2,-999.0,69,-99.99,,,0.00,Acu-Link.com,2013-06-12 20:01:00,
2013-06-12 16:16:00,89.2,78.1,29.79,WSW,247,2.7,-999.0,70,-99.99,,,0.00,Acu-Link.com,2013-06-12 20:16:00,
2013-06-12 16:31:00,88.9,78.2,29.78,SSW,202,2.7,-999.0,71,-99.99,,,0.00,Acu-Link.com,2013-06-12 20:31:00,
2013-06-12 16:47:00,89.6,78.0,29.77,SSE,157,3.2,-999.0,69,-99.99,,,0.00,Acu-Link.com,2013-06-12 20:47:00,
2013-06-12 17:02:00,88.3,78.5,29.77,West,270,0.0,-999.0,73,-99.99,,,0.00,Acu-Link.com,2013-06-12 21:02:00,
2013-06-12 17:17:00,88.7,78.5,29.77,WNW,292,0.0,-999.0,72,-99.99,,,0.00,Acu-Link.com,2013-06-12 21:17:00,
2013-06-12 17:32:00,88.5,78.7,29.78,SE,135,2.2,-999.0,73,-99.99,,,0.00,Acu-Link.com,2013-06-12 21:32:00,
2013-06-12 17:47:00,89.4,78.3,29.77,SW,225,2.7,-999.0,70,-99.99,,,0.00,Acu-Link.com,2013-06-12 21:47:00,
2013-06-12 18:03:00,88.2,78.0,29.76,South,180,1.7,-999.0,72,-99.99,,,0.00,Acu-Link.com,2013-06-12 22:03:00,
2013-06-12 18:18:00,87.4,78.5,29.77,ESE,112,1.7,-999.0,75,-99.99,,,0.00,Acu-Link.com,2013-06-12 22:18:00,
2013-06-12 18:33:00,87.3,78.4,29.77,SSE,157,1.7,-999.0,75,-99.99,,,0.00,Acu-Link.com,2013-06-12 22:33:00,
2013-06-12 18:48:00,87.1,78.6,29.77,SW,225,2.2,-999.0,76,-99.99,,,0.00,Acu-Link.com,2013-06-12 22:48:00,
2013-06-12 19:04:00,86.2,78.1,29.78,WSW,247,0.0,-999.0,77,-99.99,,,0.00,Acu-Link.com,2013-06-12 23:04:00,
2013-06-12 19:19:00,85.6,77.9,29.78,SW,225,0.0,-999.0,78,-99.99,,,0.00,Acu-Link.com,2013-06-12 23:19:00,
2013-06-12 19:34:00,85.1,77.8,29.78,West,270,0.0,-999.0,79,-99.99,,,0.00,Acu-Link.com,2013-06-12 23:34:00,
2013-06-12 19:50:00,84.2,77.7,29.77,NNE,22,1.1,-999.0,81,-99.99,,,0.00,Acu-Link.com,2013-06-12 23:50:00,
2013-06-12 20:05:00,83.8,77.3,29.77,ESE,112,0.0,-999.0,81,-99.99,,,0.00,Acu-Link.com,2013-06-13 00:05:00,
2013-06-12 20:21:00,83.3,76.8,29.77,WSW,247,0.0,-999.0,81,-99.99,,,0.00,Acu-Link.com,2013-06-13 00:21:00,
2013-06-12 20:36:00,83.1,76.6,29.76,WNW,292,0.0,-999.0,81,-99.99,,,0.00,Acu-Link.com,2013-06-13 00:36:00,
2013-06-12 20:51:00,82.4,76.0,29.76,West,270,0.0,-999.0,81,-99.99,,,0.00,Acu-Link.com,2013-06-13 00:51:00,
2013-06-12 21:06:00,81.5,74.7,29.76,ESE,112,0.0,-999.0,80,-99.99,,,0.00,Acu-Link.com,2013-06-13 01:06:00,
2013-06-12 21:21:00,81.3,73.4,29.77,West,270,3.7,-999.0,77,-99.99,,,0.00,Acu-Link.com,2013-06-13 01:21:00,
2013-06-12 21:37:00,81.3,72.6,29.76,West,270,2.7,-999.0,75,-99.99,,,0.00,Acu-Link.com,2013-06-13 01:37:00,
2013-06-12 21:53:00,81.0,71.5,29.77,WSW,247,1.7,-999.0,73,-99.99,,,0.00,Acu-Link.com,2013-06-13 01:53:00,
2013-06-12 22:08:00,81.0,70.7,29.77,SSW,202,1.1,-999.0,71,-99.99,,,0.00,Acu-Link.com,2013-06-13 02:08:00,
2013-06-12 22:23:00,81.0,70.3,29.77,West,270,0.0,-999.0,70,-99.99,,,0.00,Acu-Link.com,2013-06-13 02:23:00,
2013-06-12 22:39:00,80.8,69.2,29.77,West,270,1.1,-999.0,68,-99.99,,,0.00,Acu-Link.com,2013-06-13 02:39:00,
2013-06-12 22:54:00,80.8,68.4,29.77,West,270,2.2,-999.0,66,-99.99,,,0.00,Acu-Link.com,2013-06-13 02:54:00,
2013-06-12 23:10:00,81.0,68.1,29.76,SSW,202,0.0,-999.0,65,-99.99,,,0.00,Acu-Link.com,2013-06-13 03:10:00,
2013-06-12 23:25:00,81.0,67.7,29.75,SSW,202,0.0,-999.0,64,-99.99,,,0.00,Acu-Link.com,2013-06-13 03:25:00,
2013-06-12 23:40:00,81.1,67.7,29.75,SW,225,0.0,-999.0,64,-99.99,,,0.00,Acu-Link.com,2013-06-13 03:40:00,
2013-06-12 23:55:00,81.0,67.2,29.75,West,270,1.7,-999.0,63,-99.99,,,0.00,Acu-Link.com,2013-06-13 03:55:00,